createdAt,value
2024-01-28T00:01:02.998Z,5.22
2024-01-28T00:04:06.334Z,4.93
2024-01-28T00:07:10.710Z,4.50
2024-01-28T00:10:14.867Z,3.95
2024-01-28T00:13:20.009Z,4.03
2024-01-28T00:16:22.802Z,3.97
2024-01-28T00:19:25.668Z,3.33
2024-01-28T00:22:30.679Z,3.67
2024-01-28T00:25:33.565Z,3.70
2024-01-28T00:28:36.435Z,3.60
2024-01-28T00:31:39.398Z,4.10
2024-01-28T00:34:45.336Z,3.70
2024-01-28T00:37:51.170Z,3.33
2024-01-28T00:40:53.924Z,3.60
2024-01-28T00:43:57.241Z,3.07
2024-01-28T00:47:00.736Z,3.47
2024-01-28T00:50:04.727Z,3.60
2024-01-28T00:53:09.127Z,3.20
2024-01-28T00:56:11.927Z,3.80
2024-01-28T00:59:14.920Z,3.27
2024-01-28T01:02:20.104Z,3.35
2024-01-28T01:05:22.981Z,3.67
2024-01-28T01:08:27.335Z,3.60
2024-01-28T01:11:30.195Z,3.33
2024-01-28T01:14:36.564Z,3.40
2024-01-28T01:17:39.496Z,4.00
2024-01-28T01:20:42.568Z,3.80
2024-01-28T01:23:46.839Z,3.28
2024-01-28T01:26:49.955Z,3.80
2024-01-28T01:29:52.714Z,3.70
2024-01-28T01:32:55.877Z,3.63
2024-01-28T01:35:59.125Z,3.55
2024-01-28T01:39:03.357Z,3.47
2024-01-28T01:42:06.723Z,3.57
2024-01-28T01:45:10.466Z,3.50
2024-01-28T01:48:14.824Z,3.47
2024-01-28T01:51:18.766Z,3.40
2024-01-28T01:54:23.185Z,3.13
2024-01-28T01:57:27.700Z,3.67
2024-01-28T02:00:31.024Z,3.55
2024-01-28T02:03:34.693Z,3.22
2024-01-28T02:06:37.605Z,3.40
2024-01-28T02:09:42.007Z,3.60
2024-01-28T02:12:46.376Z,2.90
2024-01-28T02:15:49.468Z,3.47
2024-01-28T02:18:52.657Z,3.63
2024-01-28T02:21:55.999Z,3.80
2024-01-28T02:25:00.571Z,3.73
2024-01-28T02:28:03.481Z,3.88
2024-01-28T02:31:06.395Z,3.97
2024-01-28T02:34:09.477Z,3.33
2024-01-28T02:37:12.868Z,3.60
2024-01-28T02:40:17.367Z,3.53
2024-01-28T02:43:20.234Z,4.05
2024-01-28T02:46:23.330Z,3.75
2024-01-28T02:49:26.600Z,3.60
2024-01-28T02:52:29.449Z,4.40
2024-01-28T02:55:33.594Z,3.57
2024-01-28T02:58:36.353Z,3.88
2024-01-28T03:01:47.011Z,3.75
2024-01-28T03:04:49.852Z,4.15
2024-01-28T03:07:52.632Z,4.03
2024-01-28T03:10:56.768Z,3.57
2024-01-28T03:13:59.556Z,4.20
2024-01-28T03:17:02.661Z,4.10
2024-01-28T03:20:07.179Z,3.90
2024-01-28T03:23:10.760Z,4.38
2024-01-28T03:26:15.375Z,3.40
2024-01-28T03:29:18.171Z,4.15
2024-01-28T03:32:21.068Z,4.35
2024-01-28T03:35:23.832Z,4.05
2024-01-28T03:38:26.646Z,4.30
2024-01-28T03:41:30.992Z,3.37
2024-01-28T03:44:36.221Z,4.13
2024-01-28T03:47:39.336Z,3.97
2024-01-28T03:50:42.291Z,3.97
2024-01-28T03:53:45.274Z,4.13
2024-01-28T03:56:49.488Z,3.90
2024-01-28T03:59:53.445Z,4.30
2024-01-28T04:02:56.659Z,4.22
2024-01-28T04:05:59.473Z,3.38
2024-01-28T04:09:02.354Z,3.92
2024-01-28T04:12:07.363Z,3.93
2024-01-28T04:15:10.941Z,3.70
2024-01-28T04:18:14.164Z,4.07
2024-01-28T04:21:17.191Z,3.53
2024-01-28T04:24:20.005Z,4.10
2024-01-28T04:27:25.112Z,3.37
2024-01-28T04:30:28.114Z,3.80
2024-01-28T04:33:31.434Z,4.05
2024-01-28T04:36:34.301Z,4.60
2024-01-28T04:39:37.186Z,6.00
2024-01-28T04:42:42.601Z,8.97
2024-01-28T04:45:45.970Z,9.98
2024-01-28T04:48:49.248Z,8.95
2024-01-28T04:51:52.294Z,6.53
2024-01-28T04:54:55.821Z,5.82
2024-01-28T04:58:00.036Z,5.20
2024-01-28T05:01:03.129Z,5.40
2024-01-28T05:04:06.600Z,5.60
2024-01-28T05:07:09.522Z,5.05
2024-01-28T05:10:13.982Z,4.60
2024-01-28T05:13:18.159Z,4.20
2024-01-28T05:16:20.916Z,4.20
2024-01-28T05:19:23.833Z,4.97
2024-01-28T05:22:27.940Z,4.32
2024-01-28T05:25:33.154Z,4.45
2024-01-28T05:28:37.340Z,4.50
2024-01-28T05:31:40.158Z,4.75
2024-01-28T05:34:43.135Z,4.50
2024-01-28T05:37:46.366Z,4.82
2024-01-28T05:40:49.163Z,4.17
2024-01-28T05:43:53.838Z,4.03
2024-01-28T05:46:56.542Z,4.07
2024-01-28T05:49:59.349Z,3.50
2024-01-28T05:53:02.256Z,3.30
2024-01-28T05:56:07.356Z,3.70
2024-01-28T05:59:11.575Z,4.00
2024-01-28T06:02:14.350Z,4.25
2024-01-28T06:05:17.240Z,3.65
2024-01-28T06:08:20.018Z,3.80
2024-01-28T06:11:22.830Z,4.47
2024-01-28T06:14:28.917Z,4.40
2024-01-28T06:17:32.000Z,4.80
2024-01-28T06:20:37.899Z,4.70
2024-01-28T06:23:42.051Z,4.07
2024-01-28T06:26:45.615Z,4.10
2024-01-28T06:29:50.530Z,4.47
2024-01-28T06:32:53.865Z,4.13
2024-01-28T06:35:56.766Z,3.80
2024-01-28T06:38:59.512Z,4.30
2024-01-28T06:42:02.417Z,4.60
2024-01-28T06:45:08.925Z,3.93
2024-01-28T06:48:12.058Z,4.10
2024-01-28T06:51:15.105Z,4.45
2024-01-28T06:54:19.767Z,4.28
2024-01-28T06:57:22.744Z,4.17
2024-01-28T07:00:26.908Z,4.00
2024-01-28T07:03:29.801Z,4.53
2024-01-28T07:06:32.864Z,4.38
2024-01-28T07:09:35.840Z,4.18
2024-01-28T07:12:39.410Z,4.20
2024-01-28T07:15:43.697Z,4.37
2024-01-28T07:18:46.562Z,4.00
2024-01-28T07:21:49.455Z,3.95
2024-01-28T07:24:52.406Z,4.47
2024-01-28T07:27:55.305Z,4.40
2024-01-28T07:31:00.170Z,4.23
2024-01-28T07:34:05.016Z,4.10
2024-01-28T07:37:08.291Z,3.92
2024-01-28T07:40:12.265Z,3.85
2024-01-28T07:43:15.012Z,3.67
2024-01-28T07:46:20.005Z,4.33
2024-01-28T07:49:25.974Z,3.80
2024-01-28T07:52:28.909Z,4.93
2024-01-28T07:55:31.731Z,4.35
2024-01-28T07:58:34.582Z,3.97
2024-01-28T08:01:38.676Z,3.87
2024-01-28T08:04:42.221Z,3.55
2024-01-28T08:07:45.117Z,4.65
2024-01-28T08:10:47.860Z,4.22
2024-01-28T08:13:50.603Z,4.23
2024-01-28T08:16:54.831Z,4.03
2024-01-28T08:19:57.613Z,4.13
2024-01-28T08:23:00.328Z,3.90
2024-01-28T08:26:03.305Z,4.28
2024-01-28T08:29:06.370Z,4.07
2024-01-28T08:32:11.602Z,4.23
2024-01-28T08:35:14.524Z,4.30
2024-01-28T08:38:17.875Z,3.85
2024-01-28T08:41:22.231Z,4.43
2024-01-28T08:44:25.453Z,4.60
2024-01-28T08:47:32.305Z,4.43
2024-01-28T08:50:35.688Z,4.55
2024-01-28T08:53:38.541Z,5.22
2024-01-28T08:56:41.819Z,4.53
2024-01-28T08:59:45.307Z,4.33
2024-01-28T09:02:50.475Z,4.70
2024-01-28T09:05:53.714Z,5.30
2024-01-28T09:08:56.532Z,4.78
2024-01-28T09:11:59.758Z,5.78
2024-01-28T09:15:02.555Z,6.33
2024-01-28T09:18:07.416Z,6.20
2024-01-28T09:21:10.806Z,6.15
2024-01-28T09:24:13.700Z,5.53
2024-01-28T09:27:16.771Z,6.22
2024-01-28T09:30:19.768Z,5.95
2024-01-28T09:33:24.287Z,5.97
2024-01-28T09:36:27.129Z,5.53
2024-01-28T09:39:31.050Z,6.05
2024-01-28T09:42:44.538Z,5.43
2024-01-28T09:45:47.628Z,4.95
2024-01-28T09:48:53.382Z,5.95
2024-01-28T09:51:56.239Z,5.00
2024-01-28T09:54:59.145Z,4.88
2024-01-28T09:58:02.137Z,5.38
2024-01-28T10:01:07.449Z,5.53
2024-01-28T10:04:13.112Z,5.38
2024-01-28T10:07:17.267Z,4.77
2024-01-28T10:10:20.301Z,4.28
2024-01-28T10:13:23.068Z,4.65
2024-01-28T10:16:26.055Z,4.28
2024-01-28T10:19:30.217Z,4.60
2024-01-28T10:22:33.332Z,4.30
2024-01-28T10:25:36.655Z,3.67
2024-01-28T10:28:40.180Z,4.07
2024-01-28T10:31:47.144Z,3.60
2024-01-28T10:34:51.380Z,4.03
2024-01-28T10:37:57.121Z,3.87
2024-01-28T10:41:02.293Z,3.33
2024-01-28T10:44:08.424Z,3.58
2024-01-28T10:47:14.584Z,3.60
2024-01-28T10:50:21.559Z,3.80
2024-01-28T10:53:27.165Z,3.20
2024-01-28T10:56:30.145Z,3.17
2024-01-28T10:59:37.039Z,3.55
2024-01-28T11:02:41.630Z,2.78
2024-01-28T11:05:46.152Z,2.90
2024-01-28T11:08:48.976Z,3.17
2024-01-28T11:11:52.509Z,2.78
2024-01-28T11:14:55.389Z,2.90
2024-01-28T11:17:58.341Z,2.75
2024-01-28T11:21:13.251Z,3.40
2024-01-28T11:24:16.708Z,3.00
2024-01-28T11:27:20.818Z,2.80
2024-01-28T11:30:24.412Z,2.90
2024-01-28T11:33:27.445Z,3.58
2024-01-28T11:36:35.767Z,3.45
2024-01-28T11:39:41.668Z,3.37
2024-01-28T11:42:44.637Z,3.00
2024-01-28T11:45:47.635Z,2.90
2024-01-28T11:48:50.515Z,2.95
2024-01-28T11:51:58.015Z,3.17
2024-01-28T11:55:11.294Z,2.73
2024-01-28T11:58:14.365Z,2.78
2024-01-28T12:01:17.403Z,2.70
2024-01-28T12:04:21.563Z,3.15
2024-01-28T12:07:26.616Z,2.67
2024-01-28T12:10:30.007Z,2.83
2024-01-28T12:13:33.787Z,3.20
2024-01-28T12:16:37.380Z,3.20
2024-01-28T12:19:40.566Z,3.00
2024-01-28T12:22:46.687Z,2.90
2024-01-28T12:25:51.779Z,2.80
2024-01-28T12:28:55.321Z,3.20
2024-01-28T12:31:58.307Z,3.50
2024-01-28T12:35:06.363Z,3.10
2024-01-28T12:38:10.708Z,3.00
2024-01-28T12:41:13.604Z,2.60
2024-01-28T12:44:16.462Z,2.67
2024-01-28T12:47:19.293Z,3.05
2024-01-28T12:50:22.313Z,2.55
2024-01-28T12:53:26.840Z,2.40
2024-01-28T12:56:29.673Z,2.43
2024-01-28T12:59:32.659Z,2.22
2024-01-28T13:02:36.072Z,2.60
2024-01-28T13:05:39.001Z,2.72
2024-01-28T13:08:43.114Z,3.17
2024-01-28T13:11:46.956Z,2.70
2024-01-28T13:14:49.707Z,2.60
2024-01-28T13:17:52.532Z,2.72
2024-01-28T13:20:55.434Z,3.03
2024-01-28T13:23:59.628Z,3.00
2024-01-28T13:27:03.116Z,2.60
2024-01-28T13:30:06.864Z,2.17
2024-01-28T13:33:10.007Z,2.97
2024-01-28T13:36:14.137Z,2.42
2024-01-28T13:39:20.554Z,2.35
2024-01-28T13:42:23.443Z,2.53
2024-01-28T13:45:26.421Z,2.38
2024-01-28T13:48:31.236Z,2.20
2024-01-28T13:51:36.170Z,2.33
2024-01-28T13:54:40.514Z,2.28
2024-01-28T13:57:43.495Z,2.30
2024-01-28T14:00:49.164Z,2.70
2024-01-28T14:03:52.193Z,3.28
2024-01-28T14:06:55.283Z,3.22
2024-01-28T14:09:59.476Z,2.92
2024-01-28T14:13:02.299Z,2.87
2024-01-28T14:16:05.756Z,2.90
2024-01-28T14:19:08.641Z,3.10
2024-01-28T14:22:11.793Z,2.70
2024-01-28T14:25:16.122Z,2.53
2024-01-28T14:28:19.452Z,2.90
2024-01-28T14:31:23.201Z,2.42
2024-01-28T14:34:26.935Z,2.90
2024-01-28T14:37:30.669Z,2.70
2024-01-28T14:40:38.856Z,2.50
2024-01-28T14:43:42.224Z,2.00
2024-01-28T14:46:45.089Z,2.17
2024-01-28T14:49:49.644Z,2.28
2024-01-28T14:52:52.635Z,2.70
2024-01-28T14:55:56.937Z,2.50
2024-01-28T14:58:59.778Z,2.07
2024-01-28T15:02:25.622Z,2.60
2024-01-28T15:05:28.579Z,2.47
2024-01-28T15:08:32.063Z,1.90
2024-01-28T15:11:37.490Z,2.33
2024-01-28T15:14:42.121Z,2.33
2024-01-28T15:17:49.151Z,2.15
2024-01-28T15:20:52.064Z,2.10
2024-01-28T15:23:55.194Z,2.00
2024-01-28T15:27:04.926Z,2.15
2024-01-28T15:30:10.660Z,2.43
2024-01-28T15:33:34.930Z,2.20
2024-01-28T15:36:39.653Z,2.50
2024-01-28T15:39:44.344Z,2.00
2024-01-28T15:42:52.061Z,2.28
2024-01-28T15:45:56.887Z,2.40
2024-01-28T15:49:00.940Z,2.70
2024-01-28T15:52:05.896Z,2.30
2024-01-28T15:55:19.417Z,2.78
2024-01-28T15:58:30.854Z,2.60
2024-01-28T16:01:34.056Z,2.00
2024-01-28T16:07:57.727Z,2.50
2024-01-28T16:11:00.844Z,2.47
2024-01-28T16:14:05.101Z,2.47
2024-01-28T16:17:08.364Z,2.70
2024-01-28T16:20:12.688Z,2.23
2024-01-28T16:23:15.990Z,2.28
2024-01-28T16:26:19.580Z,3.08
2024-01-28T16:29:23.751Z,2.33
2024-01-28T16:32:29.452Z,2.93
2024-01-28T16:35:36.098Z,2.90
2024-01-28T16:38:39.646Z,2.85
2024-01-28T16:41:42.510Z,2.75
2024-01-28T16:44:46.744Z,2.05
2024-01-28T16:47:50.315Z,2.70
2024-01-28T16:50:53.349Z,2.93
2024-01-28T16:54:04.204Z,2.75
2024-01-28T16:57:09.820Z,2.25
2024-01-28T17:00:15.328Z,3.10
2024-01-28T17:03:18.550Z,3.03
2024-01-28T17:06:23.268Z,3.30
2024-01-28T17:09:29.170Z,3.67
2024-01-28T17:12:35.332Z,3.10
2024-01-28T17:15:39.808Z,3.10
2024-01-28T17:18:45.976Z,3.00
2024-01-28T17:21:49.097Z,3.83
2024-01-28T17:24:53.240Z,3.35
2024-01-28T17:27:56.967Z,3.70
2024-01-28T17:31:01.492Z,3.90
2024-01-28T17:34:04.672Z,3.53
2024-01-28T17:37:07.816Z,3.57
2024-01-28T17:40:12.008Z,3.90
2024-01-28T17:43:15.210Z,3.88
2024-01-28T17:46:19.709Z,3.70
2024-01-28T17:49:22.676Z,4.03
2024-01-28T17:52:30.794Z,3.80
2024-01-28T17:55:34.693Z,3.80
2024-01-28T17:58:39.128Z,4.00
2024-01-28T18:01:43.454Z,3.78
2024-01-28T18:04:46.630Z,3.88
2024-01-28T18:07:52.008Z,4.88
2024-01-28T18:10:55.292Z,3.70
2024-01-28T18:13:58.453Z,4.50
2024-01-28T18:17:03.454Z,3.65
2024-01-28T18:20:10.349Z,4.53
2024-01-28T18:23:14.499Z,4.13
2024-01-28T18:26:18.074Z,3.63
2024-01-28T18:29:22.565Z,4.27
2024-01-28T18:32:27.127Z,4.28
2024-01-28T18:35:31.425Z,4.43
2024-01-28T18:38:34.725Z,3.85
2024-01-28T18:41:37.616Z,4.37
2024-01-28T18:44:45.760Z,4.33
2024-01-28T18:47:50.264Z,4.65
2024-01-28T18:50:53.205Z,4.20
2024-01-28T18:53:56.216Z,4.35
2024-01-28T18:56:59.409Z,4.10
2024-01-28T19:00:03.181Z,4.17
2024-01-28T19:03:08.069Z,4.68
2024-01-28T19:06:11.350Z,3.90
2024-01-28T19:09:15.278Z,3.80
2024-01-28T19:12:18.162Z,4.17
2024-01-28T19:15:21.176Z,3.83
2024-01-28T19:18:26.579Z,3.95
2024-01-28T19:21:29.547Z,3.33
2024-01-28T19:24:34.930Z,3.50
2024-01-28T19:27:37.845Z,3.40
2024-01-28T19:30:40.707Z,3.40
2024-01-28T19:33:45.234Z,4.30
2024-01-28T19:36:48.820Z,4.15
2024-01-28T19:39:52.204Z,3.42
2024-01-28T19:42:55.217Z,3.63
2024-01-28T19:45:58.545Z,3.40
2024-01-28T19:49:04.469Z,3.60
2024-01-28T19:52:08.834Z,4.18
2024-01-28T19:55:14.954Z,4.40
2024-01-28T19:58:19.018Z,3.60
2024-01-28T20:01:22.070Z,3.90
2024-01-28T20:04:27.240Z,3.70
2024-01-28T20:07:30.222Z,4.60
2024-01-28T20:10:33.130Z,4.60
2024-01-28T20:13:35.933Z,4.23
2024-01-28T20:16:38.907Z,3.73
2024-01-28T20:19:43.306Z,3.95
2024-01-28T20:22:46.492Z,3.97
2024-01-28T20:25:54.028Z,4.32
2024-01-28T20:28:56.873Z,3.90
2024-01-28T20:31:59.769Z,3.80
2024-01-28T20:35:04.413Z,3.70
2024-01-28T20:38:10.059Z,3.63
2024-01-28T20:41:12.921Z,3.50
2024-01-28T20:44:16.125Z,3.90
2024-01-28T20:47:19.502Z,4.03
2024-01-28T20:50:23.857Z,3.53
2024-01-28T20:53:26.848Z,3.60
2024-01-28T20:56:29.835Z,4.05
2024-01-28T20:59:32.730Z,3.93
2024-01-28T21:02:35.838Z,3.27
2024-01-28T21:05:43.093Z,3.83
2024-01-28T21:08:46.129Z,3.90
2024-01-28T21:11:49.101Z,3.88
2024-01-28T21:14:52.021Z,4.50
2024-01-28T21:17:58.693Z,3.63
2024-01-28T21:21:03.204Z,3.97
2024-01-28T21:24:06.538Z,3.67
2024-01-28T21:27:09.503Z,3.67
2024-01-28T21:30:13.289Z,4.03
2024-01-28T21:33:18.281Z,3.63
2024-01-28T21:36:22.728Z,4.43
2024-01-28T21:39:25.624Z,4.03
2024-01-28T21:42:28.695Z,4.30
2024-01-28T21:45:31.663Z,4.23
2024-01-28T21:48:37.469Z,4.00
2024-01-28T21:51:42.166Z,4.18
2024-01-28T21:54:45.088Z,4.20
2024-01-28T21:57:48.112Z,4.00
2024-01-28T22:00:51.147Z,4.27
2024-01-28T22:03:54.241Z,3.67
2024-01-28T22:06:58.626Z,3.92
2024-01-28T22:10:01.635Z,4.05
2024-01-28T22:13:04.869Z,4.10
2024-01-28T22:16:08.471Z,3.90
2024-01-28T22:19:11.509Z,3.60
2024-01-28T22:22:15.868Z,4.03
2024-01-28T22:25:19.498Z,3.78
2024-01-28T22:28:22.605Z,3.85
2024-01-28T22:31:25.521Z,3.70
2024-01-28T22:34:28.570Z,3.70
2024-01-28T22:37:32.818Z,3.50
2024-01-28T22:40:35.809Z,3.88
2024-01-28T22:43:38.638Z,3.72
2024-01-28T22:46:41.615Z,3.33
2024-01-28T22:49:45.028Z,3.40
2024-01-28T22:52:50.228Z,3.70
2024-01-28T22:55:53.254Z,3.75
2024-01-28T22:58:56.213Z,3.95
2024-01-28T23:02:02.377Z,3.87
2024-01-28T23:05:08.300Z,3.40
2024-01-28T23:08:13.126Z,3.45
2024-01-28T23:11:16.053Z,3.75
2024-01-28T23:14:18.914Z,3.80
2024-01-28T23:17:21.895Z,4.07
2024-01-28T23:20:24.830Z,3.63
2024-01-28T23:23:29.293Z,3.70
2024-01-28T23:26:32.240Z,3.92
2024-01-28T23:29:35.189Z,3.80
2024-01-28T23:32:38.348Z,3.77
2024-01-28T23:35:41.301Z,3.63
2024-01-28T23:38:47.617Z,3.80
2024-01-28T23:41:51.290Z,3.90
2024-01-28T23:44:54.560Z,3.60
2024-01-28T23:47:57.535Z,3.50
2024-01-28T23:51:05.270Z,3.40
2024-01-28T23:54:12.179Z,4.15
2024-01-28T23:57:15.436Z,3.75
